sensor_id;sensor_type;location;lat;lon;timestamp;pressure;altitude;pressure_sealevel;temperature;humidity
23303;BME280;11820;48.738;9.092;2023-12-20T00:00:51;96284.53;;;6.10;100.00
23303;BME280;11820;48.738;9.092;2023-12-20T00:03:16;96283.75;;;6.10;100.00
23303;BME280;11820;48.738;9.092;2023-12-20T00:05:42;96269.97;;;6.11;100.00
23303;BME280;11820;48.738;9.092;2023-12-20T00:08:07;96268.03;;;6.13;100.00
23303;BME280;11820;48.738;9.092;2023-12-20T00:10:32;96267.88;;;6.14;100.00
23303;BME280;11820;48.738;9.092;2023-12-20T00:12:58;96271.22;;;6.15;100.00
23303;BME280;11820;48.738;9.092;2023-12-20T00:15:23;96273.78;;;6.15;100.00
23303;BME280;11820;48.738;9.092;2023-12-20T00:17:48;96269.63;;;6.14;100.00
23303;BME280;11820;48.738;9.092;2023-12-20T00:20:14;96265.94;;;6.16;100.00
23303;BME280;11820;48.738;9.092;2023-12-20T00:22:39;96254.22;;;6.14;100.00
23303;BME280;11820;48.738;9.092;2023-12-20T00:25:04;96266.44;;;6.12;100.00
23303;BME280;11820;48.738;9.092;2023-12-20T00:27:30;96255.88;;;6.07;100.00
23303;BME280;11820;48.738;9.092;2023-12-20T00:29:55;96252.16;;;6.09;100.00
23303;BME280;11820;48.738;9.092;2023-12-20T00:32:20;96249.13;;;6.06;100.00
23303;BME280;11820;48.738;9.092;2023-12-20T00:34:45;96248.31;;;6.05;100.00
23303;BME280;11820;48.738;9.092;2023-12-20T00:37:11;96242.41;;;6.05;100.00
23303;BME280;11820;48.738;9.092;2023-12-20T00:39:36;96243.69;;;6.01;100.00
23303;BME280;11820;48.738;9.092;2023-12-20T00:42:01;96250.44;;;6.02;100.00
23303;BME280;11820;48.738;9.092;2023-12-20T00:44:27;96252.34;;;6.00;100.00
23303;BME280;11820;48.738;9.092;2023-12-20T00:46:52;96251.25;;;5.94;100.00
23303;BME280;11820;48.738;9.092;2023-12-20T00:49:17;96247.09;;;5.85;100.00
23303;BME280;11820;48.738;9.092;2023-12-20T00:51:43;96255.28;;;5.89;100.00
23303;BME280;11820;48.738;9.092;2023-12-20T00:54:08;96238.91;;;5.90;100.00
23303;BME280;11820;48.738;9.092;2023-12-20T00:56:34;96228.00;;;5.88;100.00
23303;BME280;11820;48.738;9.092;2023-12-20T00:58:59;96238.63;;;5.85;100.00
23303;BME280;11820;48.738;9.092;2023-12-20T01:01:25;96237.78;;;5.84;100.00
23303;BME280;11820;48.738;9.092;2023-12-20T01:03:50;96245.69;;;5.83;100.00
23303;BME280;11820;48.738;9.092;2023-12-20T01:06:16;96240.22;;;5.86;100.00
23303;BME280;11820;48.738;9.092;2023-12-20T01:08:41;96246.63;;;5.82;100.00
23303;BME280;11820;48.738;9.092;2023-12-20T01:11:07;96246.31;;;5.85;100.00
23303;BME280;11820;48.738;9.092;2023-12-20T01:13:32;96247.09;;;5.77;100.00
23303;BME280;11820;48.738;9.092;2023-12-20T01:15:57;96242.78;;;5.78;100.00
23303;BME280;11820;48.738;9.092;2023-12-20T01:18:23;96249.84;;;5.76;100.00
23303;BME280;11820;48.738;9.092;2023-12-20T01:20:48;96245.66;;;5.75;100.00
23303;BME280;11820;48.738;9.092;2023-12-20T01:23:13;96246.94;;;5.71;100.00
23303;BME280;11820;48.738;9.092;2023-12-20T01:25:39;96245.19;;;5.71;100.00
23303;BME280;11820;48.738;9.092;2023-12-20T01:28:04;96238.28;;;5.72;100.00
23303;BME280;11820;48.738;9.092;2023-12-20T01:30:29;96237.66;;;5.78;100.00
23303;BME280;11820;48.738;9.092;2023-12-20T01:32:55;96249.53;;;5.79;100.00
23303;BME280;11820;48.738;9.092;2023-12-20T01:35:20;96252.72;;;5.81;100.00
23303;BME280;11820;48.738;9.092;2023-12-20T01:37:45;96252.22;;;5.77;100.00
23303;BME280;11820;48.738;9.092;2023-12-20T01:40:11;96242.78;;;5.70;100.00
23303;BME280;11820;48.738;9.092;2023-12-20T01:42:36;96241.19;;;5.77;100.00
23303;BME280;11820;48.738;9.092;2023-12-20T01:45:01;96245.03;;;5.81;100.00
23303;BME280;11820;48.738;9.092;2023-12-20T01:47:27;96253.66;;;5.72;100.00
23303;BME280;11820;48.738;9.092;2023-12-20T01:49:53;96249.66;;;5.77;100.00
23303;BME280;11820;48.738;9.092;2023-12-20T01:52:19;96246.47;;;5.83;100.00
23303;BME280;11820;48.738;9.092;2023-12-20T01:54:46;96241.81;;;5.87;100.00
23303;BME280;11820;48.738;9.092;2023-12-20T01:57:13;96242.28;;;5.82;100.00
23303;BME280;11820;48.738;9.092;2023-12-20T01:59:39;96241.97;;;5.85;100.00
23303;BME280;11820;48.738;9.092;2023-12-20T02:02:05;96233.63;;;5.83;100.00
23303;BME280;11820;48.738;9.092;2023-12-20T02:04:31;96237.66;;;5.86;100.00
23303;BME280;11820;48.738;9.092;2023-12-20T02:06:57;96238.75;;;5.83;100.00
23303;BME280;11820;48.738;9.092;2023-12-20T02:09:24;96237.00;;;5.84;100.00
23303;BME280;11820;48.738;9.092;2023-12-20T02:11:49;96233.78;;;5.90;100.00
23303;BME280;11820;48.738;9.092;2023-12-20T02:14:14;96237.94;;;5.91;100.00
23303;BME280;11820;48.738;9.092;2023-12-20T02:16:40;96233.31;;;5.86;100.00
23303;BME280;11820;48.738;9.092;2023-12-20T02:19:13;96237.16;;;5.82;100.00
23303;BME280;11820;48.738;9.092;2023-12-20T02:21:39;96234.41;;;5.92;100.00
23303;BME280;11820;48.738;9.092;2023-12-20T02:24:05;96231.56;;;5.87;100.00
23303;BME280;11820;48.738;9.092;2023-12-20T02:26:32;96239.56;;;5.84;100.00
23303;BME280;11820;48.738;9.092;2023-12-20T02:28:58;96235.72;;;5.88;100.00
23303;BME280;11820;48.738;9.092;2023-12-20T02:31:23;96235.09;;;5.86;100.00
23303;BME280;11820;48.738;9.092;2023-12-20T02:33:49;96231.22;;;5.90;100.00
23303;BME280;11820;48.738;9.092;2023-12-20T02:36:14;96229.28;;;5.92;100.00
23303;BME280;11820;48.738;9.092;2023-12-20T02:38:40;96237.31;;;5.89;100.00
23303;BME280;11820;48.738;9.092;2023-12-20T02:41:05;96239.38;;;5.93;100.00
23303;BME280;11820;48.738;9.092;2023-12-20T02:43:30;96236.00;;;5.93;100.00
23303;BME280;11820;48.738;9.092;2023-12-20T02:45:56;96237.78;;;5.92;100.00
23303;BME280;11820;48.738;9.092;2023-12-20T02:48:21;96239.22;;;5.95;100.00
23303;BME280;11820;48.738;9.092;2023-12-20T02:50:47;96236.34;;;5.90;100.00
23303;BME280;11820;48.738;9.092;2023-12-20T02:53:13;96228.94;;;5.95;100.00
23303;BME280;11820;48.738;9.092;2023-12-20T02:55:38;96237.31;;;5.89;100.00
23303;BME280;11820;48.738;9.092;2023-12-20T02:58:03;96234.75;;;5.89;100.00
23303;BME280;11820;48.738;9.092;2023-12-20T03:00:28;96238.56;;;5.93;100.00
23303;BME280;11820;48.738;9.092;2023-12-20T03:02:54;96253.47;;;5.97;100.00
23303;BME280;11820;48.738;9.092;2023-12-20T03:05:19;96242.88;;;6.00;100.00
23303;BME280;11820;48.738;9.092;2023-12-20T03:07:45;96244.19;;;5.96;100.00
23303;BME280;11820;48.738;9.092;2023-12-20T03:10:11;96248.84;;;6.01;100.00
23303;BME280;11820;48.738;9.092;2023-12-20T03:12:36;96249.47;;;5.95;100.00
23303;BME280;11820;48.738;9.092;2023-12-20T03:15:02;96249.00;;;5.99;100.00
23303;BME280;11820;48.738;9.092;2023-12-20T03:17:27;96254.59;;;6.03;100.00
23303;BME280;11820;48.738;9.092;2023-12-20T03:19:52;96260.38;;;6.05;100.00
23303;BME280;11820;48.738;9.092;2023-12-20T03:22:18;96262.78;;;5.98;100.00
23303;BME280;11820;48.738;9.092;2023-12-20T03:24:43;96263.25;;;6.02;100.00
23303;BME280;11820;48.738;9.092;2023-12-20T03:27:08;96257.47;;;6.00;100.00
23303;BME280;11820;48.738;9.092;2023-12-20T03:29:34;96257.47;;;6.00;100.00
23303;BME280;11820;48.738;9.092;2023-12-20T03:31:59;96261.00;;;5.99;100.00
23303;BME280;11820;48.738;9.092;2023-12-20T03:34:24;96258.47;;;5.91;100.00
23303;BME280;11820;48.738;9.092;2023-12-20T03:36:49;96263.59;;;5.91;100.00
23303;BME280;11820;48.738;9.092;2023-12-20T03:39:15;96261.38;;;5.88;100.00
23303;BME280;11820;48.738;9.092;2023-12-20T03:41:40;96262.47;;;5.85;100.00
23303;BME280;11820;48.738;9.092;2023-12-20T03:44:05;96261.06;;;5.83;100.00
23303;BME280;11820;48.738;9.092;2023-12-20T03:46:31;96267.78;;;5.84;100.00
23303;BME280;11820;48.738;9.092;2023-12-20T03:48:56;96270.19;;;5.85;100.00
23303;BME280;11820;48.738;9.092;2023-12-20T03:51:22;96275.50;;;5.76;100.00
23303;BME280;11820;48.738;9.092;2023-12-20T03:53:47;96272.75;;;5.77;100.00
23303;BME280;11820;48.738;9.092;2023-12-20T03:56:13;96279.34;;;5.80;100.00
23303;BME280;11820;48.738;9.092;2023-12-20T03:58:38;96271.66;;;5.80;100.00
23303;BME280;11820;48.738;9.092;2023-12-20T04:01:09;96269.69;;;5.74;100.00
23303;BME280;11820;48.738;9.092;2023-12-20T04:03:35;96277.41;;;5.66;100.00
23303;BME280;11820;48.738;9.092;2023-12-20T04:06:00;96278.69;;;5.62;100.00
23303;BME280;11820;48.738;9.092;2023-12-20T04:08:25;96274.69;;;5.67;100.00
23303;BME280;11820;48.738;9.092;2023-12-20T04:10:51;96278.22;;;5.66;100.00
23303;BME280;11820;48.738;9.092;2023-12-20T04:13:16;96269.91;;;5.64;100.00
23303;BME280;11820;48.738;9.092;2023-12-20T04:15:41;96274.06;;;5.65;100.00
23303;BME280;11820;48.738;9.092;2023-12-20T04:18:06;96270.34;;;5.68;100.00
23303;BME280;11820;48.738;9.092;2023-12-20T04:20:32;96264.59;;;5.66;100.00
23303;BME280;11820;48.738;9.092;2023-12-20T04:22:57;96275.78;;;5.73;100.00
23303;BME280;11820;48.738;9.092;2023-12-20T04:25:22;96286.88;;;5.73;100.00
23303;BME280;11820;48.738;9.092;2023-12-20T04:27:47;96295.84;;;5.69;100.00
23303;BME280;11820;48.738;9.092;2023-12-20T04:30:13;96295.03;;;5.69;100.00
23303;BME280;11820;48.738;9.092;2023-12-20T04:32:38;96295.03;;;5.69;100.00
23303;BME280;11820;48.738;9.092;2023-12-20T04:35:04;96297.44;;;5.70;100.00
23303;BME280;11820;48.738;9.092;2023-12-20T04:37:29;96295.22;;;5.67;100.00
23303;BME280;11820;48.738;9.092;2023-12-20T04:39:55;96285.91;;;5.66;100.00
23303;BME280;11820;48.738;9.092;2023-12-20T04:42:20;96308.19;;;5.66;100.00
23303;BME280;11820;48.738;9.092;2023-12-20T04:44:45;96309.47;;;5.62;100.00
23303;BME280;11820;48.738;9.092;2023-12-20T04:47:10;96318.91;;;5.61;100.00
23303;BME280;11820;48.738;9.092;2023-12-20T04:49:36;96318.44;;;5.66;100.00
23303;BME280;11820;48.738;9.092;2023-12-20T04:52:01;96320.38;;;5.64;100.00
23303;BME280;11820;48.738;9.092;2023-12-20T04:54:26;96298.09;;;5.64;100.00
23303;BME280;11820;48.738;9.092;2023-12-20T04:56:51;96300.34;;;5.59;100.00
23303;BME280;11820;48.738;9.092;2023-12-20T04:59:17;96312.03;;;5.62;100.00
23303;BME280;11820;48.738;9.092;2023-12-20T05:01:42;96319.91;;;5.52;100.00
23303;BME280;11820;48.738;9.092;2023-12-20T05:04:07;96320.56;;;5.62;100.00
23303;BME280;11820;48.738;9.092;2023-12-20T05:06:33;96321.34;;;5.63;100.00
23303;BME280;11820;48.738;9.092;2023-12-20T05:08:58;96322.00;;;5.49;100.00
23303;BME280;11820;48.738;9.092;2023-12-20T05:11:23;96330.00;;;5.54;100.00
23303;BME280;11820;48.738;9.092;2023-12-20T05:13:49;96331.44;;;5.48;100.00
23303;BME280;11820;48.738;9.092;2023-12-20T05:16:14;96329.19;;;5.53;100.00
23303;BME280;11820;48.738;9.092;2023-12-20T05:18:40;96336.09;;;5.53;100.00
23303;BME280;11820;48.738;9.092;2023-12-20T05:21:05;96349.25;;;5.50;100.00
23303;BME280;11820;48.738;9.092;2023-12-20T05:23:30;96336.56;;;5.48;100.00
23303;BME280;11820;48.738;9.092;2023-12-20T05:25:55;96342.81;;;5.46;100.00
23303;BME280;11820;48.738;9.092;2023-12-20T05:28:21;96350.03;;;5.50;100.00
23303;BME280;11820;48.738;9.092;2023-12-20T05:30:46;96347.16;;;5.37;100.00
23303;BME280;11820;48.738;9.092;2023-12-20T05:33:11;96344.59;;;5.45;100.00
23303;BME280;11820;48.738;9.092;2023-12-20T05:35:37;96350.66;;;5.52;100.00
23303;BME280;11820;48.738;9.092;2023-12-20T05:38:02;96357.41;;;5.53;100.00
23303;BME280;11820;48.738;9.092;2023-12-20T05:40:27;96354.03;;;5.37;100.00
23303;BME280;11820;48.738;9.092;2023-12-20T05:42:53;96363.97;;;5.40;100.00
23303;BME280;11820;48.738;9.092;2023-12-20T05:45:19;96371.50;;;5.49;100.00
23303;BME280;11820;48.738;9.092;2023-12-20T05:47:44;96365.59;;;5.49;100.00
23303;BME280;11820;48.738;9.092;2023-12-20T05:50:09;96367.50;;;5.31;100.00
23303;BME280;11820;48.738;9.092;2023-12-20T05:52:35;96379.66;;;5.37;100.00
23303;BME280;11820;48.738;9.092;2023-12-20T05:55:00;96379.19;;;5.41;100.00
23303;BME280;11820;48.738;9.092;2023-12-20T05:57:28;96375.19;;;5.39;100.00
23303;BME280;11820;48.738;9.092;2023-12-20T05:59:53;96381.25;;;5.46;100.00
23303;BME280;11820;48.738;9.092;2023-12-20T06:02:19;96388.66;;;5.49;100.00
23303;BME280;11820;48.738;9.092;2023-12-20T06:04:44;96399.69;;;5.57;100.00
23303;BME280;11820;48.738;9.092;2023-12-20T06:07:13;96406.63;;;5.49;100.00
23303;BME280;11820;48.738;9.092;2023-12-20T06:09:39;96398.28;;;5.55;100.00
23303;BME280;11820;48.738;9.092;2023-12-20T06:12:05;96398.59;;;5.60;100.00
23303;BME280;11820;48.738;9.092;2023-12-20T06:14:30;96399.25;;;5.54;100.00
23303;BME280;11820;48.738;9.092;2023-12-20T06:16:57;96407.41;;;5.57;100.00
23303;BME280;11820;48.738;9.092;2023-12-20T06:19:22;96396.97;;;5.35;100.00
23303;BME280;11820;48.738;9.092;2023-12-20T06:21:47;96397.63;;;5.53;100.00
23303;BME280;11820;48.738;9.092;2023-12-20T06:24:13;96395.84;;;5.53;100.00
23303;BME280;11820;48.738;9.092;2023-12-20T06:26:38;96411.56;;;5.50;100.00
23303;BME280;11820;48.738;9.092;2023-12-20T06:29:04;96407.25;;;5.59;100.00
23303;BME280;11820;48.738;9.092;2023-12-20T06:31:29;96413.66;;;5.55;100.00
23303;BME280;11820;48.738;9.092;2023-12-20T06:33:54;96410.47;;;5.61;100.00
23303;BME280;11820;48.738;9.092;2023-12-20T06:36:23;96395.22;;;5.59;100.00
23303;BME280;11820;48.738;9.092;2023-12-20T06:38:49;96392.81;;;5.66;100.00
23303;BME280;11820;48.738;9.092;2023-12-20T06:41:15;96388.66;;;5.57;100.00
23303;BME280;11820;48.738;9.092;2023-12-20T06:43:40;96389.31;;;5.51;100.00
23303;BME280;11820;48.738;9.092;2023-12-20T06:46:06;96400.66;;;5.56;100.00
23303;BME280;11820;48.738;9.092;2023-12-20T06:48:31;96396.34;;;5.65;100.00
23303;BME280;11820;48.738;9.092;2023-12-20T06:50:59;96405.00;;;5.72;100.00
23303;BME280;11820;48.738;9.092;2023-12-20T06:53:24;96415.59;;;5.69;100.00
23303;BME280;11820;48.738;9.092;2023-12-20T06:55:50;96414.63;;;5.70;100.00
23303;BME280;11820;48.738;9.092;2023-12-20T06:58:15;96411.44;;;5.76;100.00
23303;BME280;11820;48.738;9.092;2023-12-20T07:00:41;96418.03;;;5.78;100.00
23303;BME280;11820;48.738;9.092;2023-12-20T07:03:07;96421.53;;;5.77;100.00
23303;BME280;11820;48.738;9.092;2023-12-20T07:05:32;96419.91;;;5.76;100.00
23303;BME280;11820;48.738;9.092;2023-12-20T07:07:58;96424.91;;;5.78;100.00
23303;BME280;11820;48.738;9.092;2023-12-20T07:10:23;96433.53;;;5.69;100.00
23303;BME280;11820;48.738;9.092;2023-12-20T07:12:49;96434.19;;;5.71;100.00
23303;BME280;11820;48.738;9.092;2023-12-20T07:15:14;96448.00;;;5.78;100.00
23303;BME280;11820;48.738;9.092;2023-12-20T07:17:39;96446.03;;;5.64;100.00
23303;BME280;11820;48.738;9.092;2023-12-20T07:20:05;96456.94;;;5.74;100.00
23303;BME280;11820;48.738;9.092;2023-12-20T07:22:34;96468.84;;;5.75;100.00
23303;BME280;11820;48.738;9.092;2023-12-20T07:25:00;96461.94;;;5.67;100.00
23303;BME280;11820;48.738;9.092;2023-12-20T07:27:26;96469.75;;;5.66;100.00
23303;BME280;11820;48.738;9.092;2023-12-20T07:29:52;96486.09;;;5.57;100.00
23303;BME280;11820;48.738;9.092;2023-12-20T07:32:17;96475.53;;;5.52;100.00
23303;BME280;11820;48.738;9.092;2023-12-20T07:34:43;96481.88;;;5.40;100.00
23303;BME280;11820;48.738;9.092;2023-12-20T07:37:08;96487.34;;;5.45;100.00
23303;BME280;11820;48.738;9.092;2023-12-20T07:39:35;96490.91;;;5.60;100.00
23303;BME280;11820;48.738;9.092;2023-12-20T07:42:01;96493.91;;;5.39;100.00
23303;BME280;11820;48.738;9.092;2023-12-20T07:44:26;96494.72;;;5.48;100.00
23303;BME280;11820;48.738;9.092;2023-12-20T07:46:51;96495.66;;;5.39;100.00
23303;BME280;11820;48.738;9.092;2023-12-20T07:49:17;96498.84;;;5.33;100.00
23303;BME280;11820;48.738;9.092;2023-12-20T07:51:42;96493.22;;;5.29;100.00
23303;BME280;11820;48.738;9.092;2023-12-20T07:54:07;96492.78;;;5.42;100.00
23303;BME280;11820;48.738;9.092;2023-12-20T07:56:33;96488.59;;;5.33;100.00
23303;BME280;11820;48.738;9.092;2023-12-20T07:58:58;96498.47;;;5.20;100.00
23303;BME280;11820;48.738;9.092;2023-12-20T08:01:24;96503.47;;;5.29;100.00
23303;BME280;11820;48.738;9.092;2023-12-20T08:03:49;96508.41;;;5.23;100.00
23303;BME280;11820;48.738;9.092;2023-12-20T08:06:15;96501.22;;;5.18;100.00
23303;BME280;11820;48.738;9.092;2023-12-20T08:08:42;96501.41;;;5.25;100.00
23303;BME280;11820;48.738;9.092;2023-12-20T08:11:07;96505.56;;;5.26;100.00
23303;BME280;11820;48.738;9.092;2023-12-20T08:13:32;96503.97;;;5.25;100.00
23303;BME280;11820;48.738;9.092;2023-12-20T08:15:58;96509.00;;;5.01;100.00
23303;BME280;11820;48.738;9.092;2023-12-20T08:18:23;96521.53;;;5.12;100.00
23303;BME280;11820;48.738;9.092;2023-12-20T08:20:48;96503.28;;;5.23;100.00
23303;BME280;11820;48.738;9.092;2023-12-20T08:23:14;96509.03;;;5.17;100.00
23303;BME280;11820;48.738;9.092;2023-12-20T08:25:40;96506.16;;;5.12;100.00
23303;BME280;11820;48.738;9.092;2023-12-20T08:28:05;96521.84;;;5.17;100.00
23303;BME280;11820;48.738;9.092;2023-12-20T08:30:31;96528.13;;;5.22;100.00
23303;BME280;11820;48.738;9.092;2023-12-20T08:32:59;96524.47;;;5.25;100.00
23303;BME280;11820;48.738;9.092;2023-12-20T08:35:24;96526.72;;;5.28;100.00
23303;BME280;11820;48.738;9.092;2023-12-20T08:37:50;96512.44;;;5.25;100.00
23303;BME280;11820;48.738;9.092;2023-12-20T08:40:15;96529.13;;;5.29;100.00
23303;BME280;11820;48.738;9.092;2023-12-20T08:42:40;96534.41;;;5.28;100.00
23303;BME280;11820;48.738;9.092;2023-12-20T08:45:06;96541.91;;;5.21;100.00
23303;BME280;11820;48.738;9.092;2023-12-20T08:47:31;96541.72;;;5.15;100.00
23303;BME280;11820;48.738;9.092;2023-12-20T08:49:56;96554.41;;;5.24;100.00
23303;BME280;11820;48.738;9.092;2023-12-20T08:52:24;96540.94;;;5.22;100.00
23303;BME280;11820;48.738;9.092;2023-12-20T08:54:50;96545.34;;;5.04;100.00
23303;BME280;11820;48.738;9.092;2023-12-20T08:57:19;96549.03;;;5.02;100.00
23303;BME280;11820;48.738;9.092;2023-12-20T08:59:44;96555.59;;;5.04;100.00
23303;BME280;11820;48.738;9.092;2023-12-20T09:02:09;96565.66;;;4.98;100.00
23303;BME280;11820;48.738;9.092;2023-12-20T09:04:35;96547.03;;;4.96;100.00
23303;BME280;11820;48.738;9.092;2023-12-20T09:07:00;96543.13;;;5.09;100.00
23303;BME280;11820;48.738;9.092;2023-12-20T09:09:26;96537.56;;;5.22;100.00
23303;BME280;11820;48.738;9.092;2023-12-20T09:11:51;96533.47;;;5.37;100.00
23303;BME280;11820;48.738;9.092;2023-12-20T09:14:17;96539.78;;;5.58;100.00
23303;BME280;11820;48.738;9.092;2023-12-20T09:16:42;96546.06;;;5.72;100.00
23303;BME280;11820;48.738;9.092;2023-12-20T09:19:07;96546.47;;;5.85;100.00
23303;BME280;11820;48.738;9.092;2023-12-20T09:21:32;96545.78;;;5.75;100.00
23303;BME280;11820;48.738;9.092;2023-12-20T09:23:58;96553.53;;;5.91;100.00
23303;BME280;11820;48.738;9.092;2023-12-20T09:26:23;96557.75;;;6.08;100.00
23303;BME280;11820;48.738;9.092;2023-12-20T09:28:49;96547.31;;;6.25;100.00
23303;BME280;11820;48.738;9.092;2023-12-20T09:31:14;96546.69;;;6.39;100.00
23303;BME280;11820;48.738;9.092;2023-12-20T09:33:40;96549.56;;;6.28;100.00
23303;BME280;11820;48.738;9.092;2023-12-20T09:36:05;96550.53;;;6.51;100.00
23303;BME280;11820;48.738;9.092;2023-12-20T09:38:30;96547.78;;;6.84;100.00
23303;BME280;11820;48.738;9.092;2023-12-20T09:40:56;96554.66;;;6.84;100.00
23303;BME280;11820;48.738;9.092;2023-12-20T09:43:23;96551.09;;;7.09;100.00
23303;BME280;11820;48.738;9.092;2023-12-20T09:45:52;96559.09;;;7.22;100.00
23303;BME280;11820;48.738;9.092;2023-12-20T09:48:18;96567.38;;;7.48;100.00
23303;BME280;11820;48.738;9.092;2023-12-20T09:50:44;96565.22;;;7.21;100.00
23303;BME280;11820;48.738;9.092;2023-12-20T09:53:12;96568.50;;;7.45;100.00
23303;BME280;11820;48.738;9.092;2023-12-20T09:55:41;96570.44;;;7.43;100.00
23303;BME280;11820;48.738;9.092;2023-12-20T09:58:06;96574.31;;;7.39;100.00
23303;BME280;11820;48.738;9.092;2023-12-20T10:00:34;96573.94;;;7.50;100.00
23303;BME280;11820;48.738;9.092;2023-12-20T10:03:00;96573.09;;;7.11;100.00
23303;BME280;11820;48.738;9.092;2023-12-20T10:05:28;96561.06;;;7.58;100.00
23303;BME280;11820;48.738;9.092;2023-12-20T10:07:53;96572.78;;;7.91;100.00
23303;BME280;11820;48.738;9.092;2023-12-20T10:10:19;96564.97;;;8.07;100.00
23303;BME280;11820;48.738;9.092;2023-12-20T10:13:06;96571.13;;;7.98;100.00
23303;BME280;11820;48.738;9.092;2023-12-20T10:15:33;96565.84;;;7.61;100.00
23303;BME280;11820;48.738;9.092;2023-12-20T10:17:58;96579.88;;;7.04;100.00
23303;BME280;11820;48.738;9.092;2023-12-20T10:20:24;96572.28;;;7.19;100.00
23303;BME280;11820;48.738;9.092;2023-12-20T10:22:50;96564.25;;;7.14;100.00
23303;BME280;11820;48.738;9.092;2023-12-20T10:25:19;96557.88;;;6.86;100.00
23303;BME280;11820;48.738;9.092;2023-12-20T10:27:44;96552.91;;;6.84;100.00
23303;BME280;11820;48.738;9.092;2023-12-20T10:30:10;96553.91;;;6.43;100.00
23303;BME280;11820;48.738;9.092;2023-12-20T10:32:35;96553.91;;;6.28;100.00
23303;BME280;11820;48.738;9.092;2023-12-20T10:35:01;96537.19;;;6.24;100.00
23303;BME280;11820;48.738;9.092;2023-12-20T10:37:27;96545.06;;;6.30;100.00
23303;BME280;11820;48.738;9.092;2023-12-20T10:39:54;96536.91;;;6.27;100.00
23303;BME280;11820;48.738;9.092;2023-12-20T10:42:25;96540.91;;;6.29;100.00
23303;BME280;11820;48.738;9.092;2023-12-20T10:44:51;96535.78;;;6.21;100.00
23303;BME280;11820;48.738;9.092;2023-12-20T10:47:19;96539.63;;;6.25;100.00
23303;BME280;11820;48.738;9.092;2023-12-20T10:49:45;96530.94;;;6.34;100.00
23303;BME280;11820;48.738;9.092;2023-12-20T10:52:11;96542.34;;;6.47;100.00
23303;BME280;11820;48.738;9.092;2023-12-20T10:54:40;96540.91;;;6.29;100.00
23303;BME280;11820;48.738;9.092;2023-12-20T10:57:06;96533.84;;;6.15;100.00
23303;BME280;11820;48.738;9.092;2023-12-20T10:59:33;96537.34;;;6.06;100.00
23303;BME280;11820;48.738;9.092;2023-12-20T11:02:02;96537.50;;;5.89;100.00
23303;BME280;11820;48.738;9.092;2023-12-20T11:04:36;96538.63;;;5.94;100.00
23303;BME280;11820;48.738;9.092;2023-12-20T11:09:57;96541.19;;;6.02;100.00
23303;BME280;11820;48.738;9.092;2023-12-20T11:13:06;96529.97;;;6.03;100.00
23303;BME280;11820;48.738;9.092;2023-12-20T11:15:36;96530.28;;;6.08;100.00
23303;BME280;11820;48.738;9.092;2023-12-20T11:18:01;96531.94;;;6.17;100.00
23303;BME280;11820;48.738;9.092;2023-12-20T11:20:40;96529.19;;;6.42;100.00
23303;BME280;11820;48.738;9.092;2023-12-20T11:23:07;96517.28;;;6.49;100.00
23303;BME280;11820;48.738;9.092;2023-12-20T11:25:52;96528.69;;;6.07;100.00
23303;BME280;11820;48.738;9.092;2023-12-20T11:28:21;96521.97;;;6.14;100.00
23303;BME280;11820;48.738;9.092;2023-12-20T11:30:48;96523.75;;;6.38;100.00
23303;BME280;11820;48.738;9.092;2023-12-20T11:33:15;96517.34;;;6.26;100.00
23303;BME280;11820;48.738;9.092;2023-12-20T11:35:41;96531.75;;;6.03;100.00
23303;BME280;11820;48.738;9.092;2023-12-20T11:38:10;96530.63;;;5.97;100.00
23303;BME280;11820;48.738;9.092;2023-12-20T11:40:36;96524.34;;;5.84;100.00
23303;BME280;11820;48.738;9.092;2023-12-20T11:43:02;96531.25;;;6.07;100.00
23303;BME280;11820;48.738;9.092;2023-12-20T11:45:28;96519.84;;;5.94;100.00
23303;BME280;11820;48.738;9.092;2023-12-20T11:47:53;96521.97;;;5.98;100.00
23303;BME280;11820;48.738;9.092;2023-12-20T11:50:20;96523.41;;;6.09;100.00
23303;BME280;11820;48.738;9.092;2023-12-20T11:52:46;96526.63;;;6.11;100.00
23303;BME280;11820;48.738;9.092;2023-12-20T11:55:12;96536.84;;;5.79;100.00
23303;BME280;11820;48.738;9.092;2023-12-20T11:57:37;96520.50;;;5.88;100.00
23303;BME280;11820;48.738;9.092;2023-12-20T12:00:04;96515.19;;;5.81;100.00
23303;BME280;11820;48.738;9.092;2023-12-20T12:02:30;96526.72;;;5.85;100.00
23303;BME280;11820;48.738;9.092;2023-12-20T12:04:56;96514.09;;;5.84;100.00
23303;BME280;11820;48.738;9.092;2023-12-20T12:07:23;96514.50;;;5.71;100.00
23303;BME280;11820;48.738;9.092;2023-12-20T12:09:49;96507.81;;;5.86;100.00
23303;BME280;11820;48.738;9.092;2023-12-20T12:12:14;96499.47;;;5.84;100.00
23303;BME280;11820;48.738;9.092;2023-12-20T12:14:40;96503.50;;;5.79;100.00
23303;BME280;11820;48.738;9.092;2023-12-20T12:17:12;96496.78;;;6.02;100.00
23303;BME280;11820;48.738;9.092;2023-12-20T12:19:39;96478.50;;;6.05;100.00
23303;BME280;11820;48.738;9.092;2023-12-20T12:24:36;96483.31;;;6.16;100.00
23303;BME280;11820;48.738;9.092;2023-12-20T12:27:02;96486.03;;;6.14;100.00
23303;BME280;11820;48.738;9.092;2023-12-20T12:29:29;96486.03;;;6.06;100.00
23303;BME280;11820;48.738;9.092;2023-12-20T12:31:54;96479.63;;;6.18;100.00
23303;BME280;11820;48.738;9.092;2023-12-20T12:34:20;96474.19;;;6.13;100.00
23303;BME280;11820;48.738;9.092;2023-12-20T12:36:45;96465.66;;;6.37;100.00
23303;BME280;11820;48.738;9.092;2023-12-20T12:39:15;96458.88;;;6.51;100.00
23303;BME280;11820;48.738;9.092;2023-12-20T12:41:43;96473.78;;;6.56;100.00
23303;BME280;11820;48.738;9.092;2023-12-20T12:44:08;96469.00;;;6.99;100.00
23303;BME280;11820;48.738;9.092;2023-12-20T12:46:34;96464.78;;;6.68;100.00
23303;BME280;11820;48.738;9.092;2023-12-20T12:49:00;96472.69;;;6.42;100.00
23303;BME280;11820;48.738;9.092;2023-12-20T12:51:25;96472.72;;;6.27;100.00
23303;BME280;11820;48.738;9.092;2023-12-20T12:53:50;96471.75;;;6.28;100.00
23303;BME280;11820;48.738;9.092;2023-12-20T12:56:16;96482.97;;;6.19;100.00
23303;BME280;11820;48.738;9.092;2023-12-20T12:58:42;96477.53;;;6.22;100.00